Time;durP1;ratioP1;P1;durP2;ratioP2;P2;SDS_P1;SDS_P2;PMS_P1;PMS_P2;Temp;Humidity;BMP_temperature;BMP_pressure;BME280_temperature;BME280_humidity;BME280_pressure;Samples;Min_cycle;Max_cycle;Signal;HPM_P1;HPM_P2
2021/01/06 00:01:15;;;;;;;10.65;4.45;;;;;;;;;;5043037;28;20394;-60
2021/01/06 00:03:41;;;;;;;15.35;4.95;;;;;;;;;;5039567;28;20099;-60
2021/01/06 00:06:08;;;;;;;9.43;4.18;;;;;;;;;;5042982;28;20042;-60
2021/01/06 00:08:34;;;;;;;8.45;3.38;;;;;;;;;;5042867;28;20366;-60
2021/01/06 00:11:00;;;;;;;13.00;4.80;;;;;;;;;;5039275;28;20036;-60
2021/01/06 00:13:27;;;;;;;10.80;3.28;;;;;;;;;;5042896;28;20125;-60
2021/01/06 00:15:53;;;;;;;12.05;4.72;;;;;;;;;;5037981;28;20053;-60
2021/01/06 00:18:21;;;;;;;7.45;3.30;;;;;;;;;;5041792;28;20041;-60
2021/01/06 00:20:48;;;;;;;10.70;3.92;;;;;;;;;;5038751;28;20041;-60
2021/01/06 00:23:15;;;;;;;12.00;4.50;;;;;;;;;;5032830;28;20057;-60
2021/01/06 00:25:41;;;;;;;10.82;4.43;;;;;;;;;;5036458;28;20060;-60
2021/01/06 00:28:07;;;;;;;12.27;4.47;;;;;;;;;;5042083;28;20065;-60
2021/01/06 00:30:34;;;;;;;11.25;4.32;;;;;;;;;;5038379;28;20122;-61
2021/01/06 00:33:03;;;;;;;11.23;4.28;;;;;;;;;;5042967;28;20048;-60
2021/01/06 00:35:29;;;;;;;;;;;;;;;;;;5040827;28;20033;-60
2021/01/06 00:37:57;;;;;;;8.40;3.42;;;;;;;;;;5039532;28;19932;-60
2021/01/06 00:40:28;;;;;;;11.75;4.25;;;;;;;;;;5038942;28;20524;-60
2021/01/06 00:42:55;;;;;;;10.48;4.60;;;;;;;;;;5027453;28;20056;-60
2021/01/06 00:45:21;;;;;;;10.18;4.50;;;;;;;;;;5003609;28;20090;-62
2021/01/06 00:47:47;;;;;;;10.95;3.35;;;;;;;;;;5040101;28;20530;-62
2021/01/06 00:50:13;;;;;;;9.45;3.88;;;;;;;;;;5043858;28;20033;-62
2021/01/06 00:52:40;;;;;;;9.07;3.28;;;;;;;;;;5040577;28;20045;-62
2021/01/06 00:55:08;;;;;;;9.50;4.70;;;;;;;;;;5041890;28;20045;-62
2021/01/06 00:57:34;;;;;;;14.10;4.63;;;;;;;;;;5040837;28;20041;-62
2021/01/06 01:00:00;;;;;;;11.10;3.97;;;;;;;;;;5041811;28;20048;-62
2021/01/06 01:02:26;;;;;;;11.95;3.95;;;;;;;;;;5037837;28;20033;-62
2021/01/06 01:04:51;;;;;;;10.07;2.88;;;;;;;;;;5045126;28;20506;-62
2021/01/06 01:07:18;;;;;;;13.43;4.07;;;;;;;;;;5039670;28;20037;-62
2021/01/06 01:09:44;;;;;;;10.43;4.35;;;;;;;;;;5041491;28;20131;-63
2021/01/06 01:12:12;;;;;;;11.68;4.80;;;;;;;;;;5039059;28;20057;-62
2021/01/06 01:14:38;;;;;;;10.05;3.58;;;;;;;;;;5040817;28;20037;-62
2021/01/06 01:17:04;;;;;;;10.65;3.92;;;;;;;;;;5038126;28;20486;-63
2021/01/06 01:19:30;;;;;;;6.95;2.85;;;;;;;;;;5054798;28;20060;-62
2021/01/06 01:21:56;;;;;;;12.10;4.80;;;;;;;;;;5037200;28;20079;-62
2021/01/06 01:24:23;;;;;;;12.32;4.30;;;;;;;;;;5041154;28;20118;-62
2021/01/06 01:26:50;;;;;;;10.60;4.22;;;;;;;;;;5037879;28;20041;-61
2021/01/06 01:29:17;;;;;;;11.80;3.88;;;;;;;;;;5038334;28;20045;-62
2021/01/06 01:31:45;;;;;;;9.50;3.75;;;;;;;;;;5039829;28;20073;-63
2021/01/06 01:34:12;;;;;;;8.60;3.83;;;;;;;;;;5038533;28;20052;-62
2021/01/06 01:36:44;;;;;;;8.73;3.33;;;;;;;;;;5040935;28;20045;-63
2021/01/06 01:39:10;;;;;;;9.25;3.75;;;;;;;;;;5032384;28;20440;-62
2021/01/06 01:41:36;;;;;;;11.15;3.78;;;;;;;;;;5041571;28;20056;-62
2021/01/06 01:44:03;;;;;;;11.30;3.88;;;;;;;;;;5037975;28;20040;-63
2021/01/06 01:46:37;;;;;;;8.48;3.15;;;;;;;;;;5041097;28;20105;-63
2021/01/06 01:49:05;;;;;;;9.57;4.00;;;;;;;;;;5037041;28;20047;-62
2021/01/06 01:51:34;;;;;;;8.25;3.10;;;;;;;;;;5039796;28;20040;-62
2021/01/06 01:54:03;;;;;;;9.73;3.33;;;;;;;;;;5037569;28;20056;-62
2021/01/06 01:56:32;;;;;;;5.53;2.45;;;;;;;;;;5041100;28;20561;-62
2021/01/06 01:58:58;;;;;;;8.77;3.67;;;;;;;;;;5037585;28;20359;-62
2021/01/06 02:01:25;;;;;;;10.40;3.30;;;;;;;;;;5043066;28;20034;-62
2021/01/06 02:03:55;;;;;;;10.48;3.88;;;;;;;;;;5037977;28;20033;-62
2021/01/06 02:06:22;;;;;;;9.00;3.88;;;;;;;;;;5040719;28;20033;-62
2021/01/06 02:08:51;;;;;;;11.38;3.50;;;;;;;;;;5036164;28;20041;-62
2021/01/06 02:11:19;;;;;;;8.18;3.13;;;;;;;;;;5041440;28;20045;-63
2021/01/06 02:13:48;;;;;;;9.93;3.85;;;;;;;;;;5040322;28;20495;-62
2021/01/06 02:16:19;;;;;;;8.38;3.33;;;;;;;;;;5044785;28;20041;-61
2021/01/06 02:18:45;;;;;;;5.95;2.72;;;;;;;;;;5044412;28;20048;-60
2021/01/06 02:21:14;;;;;;;9.95;4.00;;;;;;;;;;5043457;28;20073;-61
2021/01/06 02:23:41;;;;;;;8.93;3.63;;;;;;;;;;5045630;28;20045;-61
2021/01/06 02:26:07;;;;;;;9.85;3.80;;;;;;;;;;5041520;28;20595;-61
2021/01/06 02:28:34;;;;;;;9.57;4.10;;;;;;;;;;5048545;28;20045;-61
2021/01/06 02:31:00;;;;;;;10.18;3.35;;;;;;;;;;5042836;28;20034;-60
2021/01/06 02:33:30;;;;;;;10.52;3.75;;;;;;;;;;5045208;28;20045;-61
2021/01/06 02:35:56;;;;;;;8.60;3.58;;;;;;;;;;5040437;28;20057;-61
2021/01/06 02:38:23;;;;;;;7.90;3.22;;;;;;;;;;5043564;28;20451;-60
2021/01/06 02:40:51;;;;;;;9.20;3.25;;;;;;;;;;5040306;28;20506;-61
2021/01/06 02:43:18;;;;;;;7.97;3.13;;;;;;;;;;5043830;28;20044;-60
2021/01/06 02:45:44;;;;;;;11.23;3.30;;;;;;;;;;5038801;28;20041;-61
2021/01/06 02:48:10;;;;;;;9.02;3.60;;;;;;;;;;5042842;28;20044;-61
2021/01/06 02:50:40;;;;;;;8.40;3.17;;;;;;;;;;5038401;28;20029;-61
2021/01/06 02:53:08;;;;;;;7.60;3.08;;;;;;;;;;5043677;28;20114;-60
2021/01/06 02:55:36;;;;;;;8.45;3.10;;;;;;;;;;5039734;28;20085;-61
2021/01/06 02:58:05;;;;;;;6.35;2.95;;;;;;;;;;5044199;28;20029;-61
2021/01/06 03:00:31;;;;;;;6.00;2.75;;;;;;;;;;5038814;28;20041;-61
2021/01/06 03:02:59;;;;;;;7.22;3.25;;;;;;;;;;5021865;28;20037;-60
2021/01/06 03:05:27;;;;;;;9.05;3.40;;;;;;;;;;5033375;28;20037;-60
2021/01/06 03:07:53;;;;;;;8.77;3.85;;;;;;;;;;5038281;28;20075;-60
2021/01/06 03:10:22;;;;;;;9.82;3.95;;;;;;;;;;5042277;28;20041;-61
2021/01/06 03:12:50;;;;;;;11.98;3.75;;;;;;;;;;5039025;28;20033;-60
2021/01/06 03:15:18;;;;;;;9.10;3.70;;;;;;;;;;5040946;28;20041;-60
2021/01/06 03:17:44;;;;;;;9.77;3.78;;;;;;;;;;5040556;28;20029;-60
2021/01/06 03:20:13;;;;;;;10.02;4.00;;;;;;;;;;5042516;28;20123;-60
2021/01/06 03:22:42;;;;;;;9.63;4.07;;;;;;;;;;5040473;28;20045;-60
2021/01/06 03:25:07;;;;;;;;;;;;;;;;;;5044616;28;20052;-61
2021/01/06 03:27:34;;;;;;;7.80;3.03;;;;;;;;;;5039322;28;19932;-60
2021/01/06 03:30:03;;;;;;;7.82;3.60;;;;;;;;;;5038828;28;20110;-60
2021/01/06 03:32:31;;;;;;;10.07;3.38;;;;;;;;;;5038439;28;20041;-60
2021/01/06 03:35:01;;;;;;;7.93;3.37;;;;;;;;;;5041996;28;20048;-61
2021/01/06 03:37:29;;;;;;;9.85;3.33;;;;;;;;;;5038212;28;20041;-60
2021/01/06 03:40:00;;;;;;;9.55;3.88;;;;;;;;;;5044339;28;20115;-61
2021/01/06 03:42:35;;;;;;;8.32;3.45;;;;;;;;;;5038338;28;20381;-60
2021/01/06 03:45:04;;;;;;;13.32;4.28;;;;;;;;;;5042924;28;20475;-61
2021/01/06 03:47:32;;;;;;;8.70;3.97;;;;;;;;;;5039701;28;20658;-60
2021/01/06 03:50:00;;;;;;;10.17;4.00;;;;;;;;;;5042238;28;20487;-63
2021/01/06 03:52:36;;;;;;;14.07;3.75;;;;;;;;;;5045057;28;20747;-63
2021/01/06 03:55:06;;;;;;;9.02;3.65;;;;;;;;;;5024568;28;20042;-62
2021/01/06 03:57:32;;;;;;;9.73;3.17;;;;;;;;;;5026438;28;20045;-63
2021/01/06 03:59:58;;;;;;;7.53;3.20;;;;;;;;;;5038657;28;20306;-63
2021/01/06 04:02:27;;;;;;;9.93;4.03;;;;;;;;;;5043083;28;20044;-62
2021/01/06 04:04:55;;;;;;;10.43;4.18;;;;;;;;;;5039044;28;20045;-63
2021/01/06 04:07:25;;;;;;;8.07;3.05;;;;;;;;;;5041390;28;20114;-62
2021/01/06 04:09:53;;;;;;;8.43;4.10;;;;;;;;;;5038650;28;20107;-62
2021/01/06 04:12:19;;;;;;;9.13;3.15;;;;;;;;;;5042063;28;20049;-63
2021/01/06 04:14:46;;;;;;;7.95;3.08;;;;;;;;;;5039984;28;20037;-62
2021/01/06 04:17:17;;;;;;;8.55;3.60;;;;;;;;;;5044477;28;20061;-62
2021/01/06 04:19:46;;;;;;;9.15;3.28;;;;;;;;;;5038019;28;20056;-62
2021/01/06 04:22:12;;;;;;;;;;;;;;;;;;5042464;28;20041;-62
2021/01/06 04:24:38;;;;;;;8.98;3.30;;;;;;;;;;5037034;28;20002;-62
2021/01/06 04:27:05;;;;;;;7.95;2.90;;;;;;;;;;5042528;28;20033;-62
2021/01/06 04:29:31;;;;;;;9.65;4.00;;;;;;;;;;5036747;28;20048;-63
2021/01/06 04:31:57;;;;;;;11.25;3.53;;;;;;;;;;5043491;28;20053;-62
2021/01/06 04:34:23;;;;;;;6.13;2.65;;;;;;;;;;5039143;28;21273;-63
2021/01/06 04:36:51;;;;;;;12.15;4.13;;;;;;;;;;5042885;28;20130;-62
2021/01/06 04:39:17;;;;;;;8.50;3.65;;;;;;;;;;5039547;28;20122;-63
2021/01/06 04:41:47;;;;;;;7.53;2.88;;;;;;;;;;5040481;28;20105;-62
2021/01/06 04:44:24;;;;;;;10.25;4.32;;;;;;;;;;5041648;28;20037;-62
2021/01/06 04:46:57;;;;;;;8.13;2.83;;;;;;;;;;5038878;28;20041;-62
2021/01/06 04:49:27;;;;;;;11.02;4.20;;;;;;;;;;5041843;28;20089;-62
2021/01/06 04:52:00;;;;;;;13.55;3.50;;;;;;;;;;5040612;28;20033;-63
2021/01/06 04:54:45;;;;;;;12.07;4.07;;;;;;;;;;5040568;28;20084;-62
2021/01/06 04:57:15;;;;;;;8.73;3.35;;;;;;;;;;5020385;28;20195;-62
2021/01/06 04:59:47;;;;;;;9.70;4.00;;;;;;;;;;5044679;28;20032;-62
2021/01/06 05:02:18;;;;;;;8.48;3.95;;;;;;;;;;5040863;28;20049;-63
2021/01/06 05:04:56;;;;;;;8.45;2.72;;;;;;;;;;5044188;28;20029;-62
2021/01/06 05:07:29;;;;;;;9.17;3.73;;;;;;;;;;5041204;28;20098;-62
2021/01/06 05:09:58;;;;;;;9.77;3.85;;;;;;;;;;5045208;28;20044;-63
2021/01/06 05:12:29;;;;;;;9.50;3.95;;;;;;;;;;5041326;28;20045;-62
2021/01/06 05:15:01;;;;;;;7.40;3.15;;;;;;;;;;5045013;28;20052;-63
2021/01/06 05:17:27;;;;;;;8.52;3.90;;;;;;;;;;5039411;28;20032;-62
2021/01/06 05:19:53;;;;;;;8.85;3.45;;;;;;;;;;5044747;28;20044;-62
2021/01/06 05:22:20;;;;;;;8.18;3.20;;;;;;;;;;5044258;28;20052;-62
2021/01/06 05:24:48;;;;;;;8.55;3.78;;;;;;;;;;5047795;28;20033;-62
2021/01/06 05:27:21;;;;;;;7.95;3.33;;;;;;;;;;5042387;28;20044;-62
2021/01/06 05:29:48;;;;;;;9.50;3.53;;;;;;;;;;5050085;28;20033;-62
2021/01/06 05:32:16;;;;;;;9.07;3.78;;;;;;;;;;5020087;28;20041;-62
2021/01/06 05:34:42;;;;;;;8.67;3.47;;;;;;;;;;5036929;28;20036;-62
2021/01/06 05:37:10;;;;;;;8.38;3.75;;;;;;;;;;5040717;28;20036;-62
2021/01/06 05:39:36;;;;;;;8.55;3.55;;;;;;;;;;5045142;28;20048;-62
2021/01/06 05:42:09;;;;;;;7.97;3.55;;;;;;;;;;5047185;28;20045;-62
2021/01/06 05:44:35;;;;;;;9.38;3.05;;;;;;;;;;5023254;28;20064;-62
2021/01/06 05:47:01;;;;;;;9.85;3.83;;;;;;;;;;5053035;28;20502;-63
2021/01/06 05:49:31;;;;;;;12.20;3.92;;;;;;;;;;5043265;28;20061;-62
2021/01/06 05:51:58;;;;;;;7.15;3.10;;;;;;;;;;5044557;28;20044;-62
2021/01/06 05:54:27;;;;;;;8.80;3.63;;;;;;;;;;5041334;28;20045;-62
2021/01/06 05:56:58;;;;;;;9.40;3.67;;;;;;;;;;5043955;28;20045;-62
2021/01/06 05:59:29;;;;;;;7.57;3.10;;;;;;;;;;5039926;28;20036;-62
2021/01/06 06:01:58;;;;;;;11.60;3.38;;;;;;;;;;5042422;28;20033;-62
2021/01/06 06:04:23;;;;;;;;;;;;;;;;;;5041289;28;20514;-63
2021/01/06 06:07:04;;;;;;;6.85;2.78;;;;;;;;;;5039913;28;19939;-62
2021/01/06 06:09:44;;;;;;;11.65;3.35;;;;;;;;;;5046917;28;20058;-63
2021/01/06 06:12:18;;;;;;;7.88;2.92;;;;;;;;;;5021952;28;20052;-62
2021/01/06 06:14:58;;;;;;;7.53;3.13;;;;;;;;;;5036159;28;20045;-62
2021/01/06 06:17:29;;;;;;;6.53;2.70;;;;;;;;;;5040599;28;20091;-62
2021/01/06 06:20:09;;;;;;;10.35;3.80;;;;;;;;;;5037857;28;20038;-62
2021/01/06 06:22:38;;;;;;;6.05;2.53;;;;;;;;;;5042629;28;20053;-62
2021/01/06 06:25:13;;;;;;;9.40;3.30;;;;;;;;;;5036739;28;20064;-62
2021/01/06 06:27:46;;;;;;;9.68;3.58;;;;;;;;;;5040867;28;20050;-62
2021/01/06 06:30:30;;;;;;;7.57;3.28;;;;;;;;;;5036589;28;20072;-61
2021/01/06 06:32:58;;;;;;;9.75;3.38;;;;;;;;;;5041483;28;20067;-62
2021/01/06 06:35:35;;;;;;;10.32;3.85;;;;;;;;;;5037899;28;20045;-62
2021/01/06 06:38:03;;;;;;;8.32;2.97;;;;;;;;;;5040499;28;20029;-62
2021/01/06 06:40:49;;;;;;;7.03;3.10;;;;;;;;;;5036701;28;20047;-62
2021/01/06 06:43:18;;;;;;;9.45;3.53;;;;;;;;;;5042688;28;20045;-62
2021/01/06 06:45:44;;;;;;;;;;;;;;;;;;5038906;28;20114;-62
2021/01/06 06:48:16;;;;;;;8.82;2.85;;;;;;;;;;5058216;28;19913;-62
2021/01/06 06:50:53;;;;;;;8.45;3.00;;;;;;;;;;5019289;28;20033;-62
2021/01/06 06:53:24;;;;;;;9.15;2.80;;;;;;;;;;5023266;28;20052;-62
2021/01/06 06:55:56;;;;;;;7.10;2.95;;;;;;;;;;5015777;28;20042;-62
2021/01/06 06:58:30;;;;;;;6.28;2.60;;;;;;;;;;5020794;28;20049;-62
2021/01/06 07:00:56;;;;;;;7.82;2.88;;;;;;;;;;5036618;28;20053;-62
2021/01/06 07:03:24;;;;;;;9.52;2.83;;;;;;;;;;5065356;28;20033;-62
2021/01/06 07:05:54;;;;;;;8.80;3.30;;;;;;;;;;5043216;28;20036;-63
2021/01/06 07:08:22;;;;;;;7.63;2.85;;;;;;;;;;5045085;28;20033;-63
2021/01/06 07:10:56;;;;;;;6.82;3.08;;;;;;;;;;5042599;28;20044;-62
2021/01/06 07:13:24;;;;;;;9.25;3.00;;;;;;;;;;5045134;28;20052;-62
2021/01/06 07:15:51;;;;;;;6.70;2.75;;;;;;;;;;5042765;28;20047;-62
2021/01/06 07:18:39;;;;;;;7.45;2.78;;;;;;;;;;5045977;28;20264;-62
2021/01/06 07:21:16;;;;;;;8.07;3.17;;;;;;;;;;5037239;28;20392;-63
2021/01/06 07:23:46;;;;;;;5.80;2.65;;;;;;;;;;5045276;28;20811;-62
2021/01/06 07:26:13;;;;;;;8.23;2.83;;;;;;;;;;5042631;28;20408;-62
2021/01/06 07:28:40;;;;;;;7.60;3.03;;;;;;;;;;5045173;28;20045;-62
2021/01/06 07:31:11;;;;;;;6.47;2.83;;;;;;;;;;5043254;28;20044;-62
2021/01/06 07:33:41;;;;;;;7.75;3.38;;;;;;;;;;5064637;28;20059;-62
2021/01/06 07:36:09;;;;;;;8.07;3.40;;;;;;;;;;5046976;28;20052;-62
2021/01/06 07:38:37;;;;;;;9.52;3.40;;;;;;;;;;5045450;28;20045;-62
2021/01/06 07:41:03;;;;;;;7.93;2.75;;;;;;;;;;5044714;28;20045;-61
2021/01/06 07:43:34;;;;;;;8.57;3.25;;;;;;;;;;5039966;28;20044;-62
2021/01/06 07:46:18;;;;;;;10.98;3.40;;;;;;;;;;5040797;28;20041;-62
2021/01/06 07:49:02;;;;;;;8.88;3.25;;;;;;;;;;5025196;28;20059;-62
2021/01/06 07:51:34;;;;;;;8.02;2.90;;;;;;;;;;5033085;28;20071;-62
2021/01/06 07:54:13;;;;;;;6.72;2.60;;;;;;;;;;5034076;28;20136;-62
2021/01/06 07:56:43;;;;;;;9.45;3.50;;;;;;;;;;5041049;28;20033;-62
2021/01/06 07:59:17;;;;;;;8.32;3.38;;;;;;;;;;5039764;28;20052;-62
2021/01/06 08:01:45;;;;;;;10.85;3.78;;;;;;;;;;5059435;28;20121;-63
2021/01/06 08:04:11;;;;;;;;;;;;;;;;;;5042570;28;20052;-62
2021/01/06 08:06:38;;;;;;;7.93;3.03;;;;;;;;;;5041520;28;19921;-62
2021/01/06 08:09:04;;;;;;;9.10;2.50;;;;;;;;;;5039078;28;20052;-62
2021/01/06 08:11:31;;;;;;;8.30;3.00;;;;;;;;;;5041524;28;20046;-62
2021/01/06 08:14:01;;;;;;;10.40;2.78;;;;;;;;;;5041606;28;20033;-62
2021/01/06 08:16:33;;;;;;;8.27;3.00;;;;;;;;;;5043555;28;20452;-62
2021/01/06 08:19:04;;;;;;;8.60;2.92;;;;;;;;;;5039657;28;20041;-62
2021/01/06 08:21:32;;;;;;;10.45;3.38;;;;;;;;;;5042507;28;20033;-62
2021/01/06 08:24:06;;;;;;;6.88;2.83;;;;;;;;;;5039316;28;20053;-62
2021/01/06 08:26:34;;;;;;;8.77;3.05;;;;;;;;;;5042707;28;20550;-62
2021/01/06 08:29:07;;;;;;;4.50;1.92;;;;;;;;;;5038433;28;20052;-62
2021/01/06 08:31:34;;;;;;;9.00;3.55;;;;;;;;;;5041942;28;20036;-62
2021/01/06 08:34:00;;;;;;;7.45;3.35;;;;;;;;;;5037671;28;20033;-62
2021/01/06 08:36:29;;;;;;;7.82;2.78;;;;;;;;;;5042507;28;20045;-62
2021/01/06 08:39:14;;;;;;;9.15;3.22;;;;;;;;;;5037417;28;20046;-62
2021/01/06 08:41:42;;;;;;;11.00;3.30;;;;;;;;;;5039551;28;20034;-62
2021/01/06 08:44:26;;;;;;;8.88;3.05;;;;;;;;;;5020893;28;20052;-62
2021/01/06 08:46:54;;;;;;;10.32;3.35;;;;;;;;;;5039989;28;20021;-62
2021/01/06 08:49:23;;;;;;;8.05;3.10;;;;;;;;;;5037470;28;20049;-62
2021/01/06 08:51:49;;;;;;;9.23;3.58;;;;;;;;;;5040620;28;20041;-62
2021/01/06 08:54:16;;;;;;;9.40;3.45;;;;;;;;;;5039122;28;20045;-62
2021/01/06 08:56:43;;;;;;;7.65;3.25;;;;;;;;;;5022412;28;20046;-62
2021/01/06 08:59:24;;;;;;;7.15;3.13;;;;;;;;;;5023056;28;20034;-62
2021/01/06 09:01:52;;;;;;;12.68;4.05;;;;;;;;;;5057160;28;20029;-62
2021/01/06 09:04:21;;;;;;;7.80;2.92;;;;;;;;;;5040861;28;20041;-62
2021/01/06 09:06:47;;;;;;;;;;;;;;;;;;5040269;28;20037;-62
2021/01/06 09:09:25;;;;;;;6.00;2.58;;;;;;;;;;5058809;28;19928;-62
2021/01/06 09:11:54;;;;;;;8.65;2.70;;;;;;;;;;5039601;28;20045;-63
2021/01/06 09:14:20;;;;;;;;;;;;;;;;;;5043603;28;20126;-62
2021/01/06 09:16:46;;;;;;;;;;;;;;;;;;5038154;28;19921;-62
2021/01/06 09:19:12;;;;;;;;;;;;;;;;;;5040877;28;19924;-63
2021/01/06 09:21:38;;;;;;;;;;;;;;;;;;5036750;28;20329;-62
2021/01/06 09:24:04;;;;;;;;;;;;;;;;;;5041849;28;19948;-62
2021/01/06 09:26:30;;;;;;;;;;;;;;;;;;5037427;28;19928;-62
2021/01/06 09:28:56;;;;;;;;;;;;;;;;;;5041899;28;19945;-62
2021/01/06 09:31:21;;;;;;;;;;;;;;;;;;5037584;28;19931;-62
2021/01/06 09:33:48;;;;;;;;;;;;;;;;;;5041633;28;19920;-62
2021/01/06 09:36:14;;;;;;;;;;;;;;;;;;5039041;28;19925;-62
2021/01/06 09:38:40;;;;;;;;;;;;;;;;;;5042113;28;19949;-62
2021/01/06 09:41:06;;;;;;;;;;;;;;;;;;5040627;28;19936;-63
2021/01/06 09:43:32;;;;;;;;;;;;;;;;;;5022968;28;19933;-62
2021/01/06 09:45:58;;;;;;;;;;;;;;;;;;5020626;28;19961;-62
2021/01/06 09:48:23;;;;;;;;;;;;;;;;;;5033916;28;19925;-62
2021/01/06 09:50:49;;;;;;;;;;;;;;;;;;5039999;28;19924;-62
2021/01/06 09:53:15;;;;;;;;;;;;;;;;;;5036914;28;19921;-62
2021/01/06 09:55:41;;;;;;;;;;;;;;;;;;5040601;28;20006;-62
2021/01/06 09:58:07;;;;;;;;;;;;;;;;;;5036599;28;19955;-62
2021/01/06 10:00:33;;;;;;;;;;;;;;;;;;5039939;28;19940;-62
2021/01/06 10:02:58;;;;;;;;;;;;;;;;;;5036492;28;19931;-62
2021/01/06 10:05:24;;;;;;;;;;;;;;;;;;5039929;28;20002;-62
2021/01/06 10:07:50;;;;;;;;;;;;;;;;;;5036118;28;19929;-62
2021/01/06 10:10:16;;;;;;;;;;;;;;;;;;5039502;28;19936;-62
2021/01/06 10:12:42;;;;;;;;;;;;;;;;;;5037993;28;19931;-62
2021/01/06 10:15:08;;;;;;;;;;;;;;;;;;5040146;28;19947;-62
2021/01/06 10:17:35;;;;;;;;;;;;;;;;;;5036384;28;19986;-63
2021/01/06 10:20:00;;;;;;;;;;;;;;;;;;5039558;28;19932;-62
2021/01/06 10:22:27;;;;;;;;;;;;;;;;;;5039784;28;19917;-62
2021/01/06 10:24:52;;;;;;;;;;;;;;;;;;5036251;28;19928;-62
2021/01/06 10:27:18;;;;;;;;;;;;;;;;;;5039468;28;19949;-63
2021/01/06 10:29:45;;;;;;;;;;;;;;;;;;5035592;28;19935;-62
2021/01/06 10:32:11;;;;;;;;;;;;;;;;;;5040226;28;19921;-63
2021/01/06 10:34:37;;;;;;;;;;;;;;;;;;5039468;28;20006;-62
2021/01/06 10:37:02;;;;;;;;;;;;;;;;;;5044108;28;19941;-62
2021/01/06 10:39:28;;;;;;;;;;;;;;;;;;5038288;28;19916;-62
2021/01/06 10:41:54;;;;;;;;;;;;;;;;;;5037680;28;19925;-63
2021/01/06 10:44:20;;;;;;;;;;;;;;;;;;5026931;28;19925;-62
2021/01/06 10:46:46;;;;;;;;;;;;;;;;;;5043130;28;19928;-62
2021/01/06 10:49:11;;;;;;;;;;;;;;;;;;5038773;28;20312;-63
2021/01/06 10:51:37;;;;;;;;;;;;;;;;;;5043355;28;19939;-62
2021/01/06 10:54:03;;;;;;;;;;;;;;;;;;5040289;28;19953;-62
2021/01/06 10:56:29;;;;;;;;;;;;;;;;;;5043169;28;19925;-62
2021/01/06 10:58:56;;;;;;;;;;;;;;;;;;5042539;28;19921;-63
2021/01/06 11:01:30;;;;;;;;;;;;;;;;;;5039006;28;19925;-62
2021/01/06 11:03:55;;;;;;;;;;;;;;;;;;5044367;28;19920;-62
2021/01/06 11:06:21;;;;;;;;;;;;;;;;;;5041155;28;19931;-62
2021/01/06 11:08:47;;;;;;;;;;;;;;;;;;5043019;28;19937;-63
2021/01/06 11:11:13;;;;;;;;;;;;;;;;;;5038209;28;19933;-62
2021/01/06 11:13:39;;;;;;;;;;;;;;;;;;5043000;28;19924;-62
2021/01/06 11:16:04;;;;;;;;;;;;;;;;;;5038934;28;19997;-62
2021/01/06 11:18:30;;;;;;;;;;;;;;;;;;5043155;28;19948;-62
2021/01/06 11:20:56;;;;;;;;;;;;;;;;;;5037947;28;19932;-62
2021/01/06 11:23:22;;;;;;;;;;;;;;;;;;5042131;28;19921;-62
2021/01/06 11:25:49;;;;;;;;;;;;;;;;;;5038685;28;20047;-62
2021/01/06 11:28:15;;;;;;;;;;;;;;;;;;5041530;28;20399;-62
2021/01/06 11:30:41;;;;;;;;;;;;;;;;;;5037495;28;19917;-62
2021/01/06 11:33:09;;;;;;;;;;;;;;;;;;5042147;28;19931;-63
2021/01/06 11:35:35;;;;;;;;;;;;;;;;;;5038011;28;19924;-63
2021/01/06 11:38:01;;;;;;;;;;;;;;;;;;5041461;28;19931;-62
2021/01/06 11:40:27;;;;;;;;;;;;;;;;;;5040743;28;19928;-62
2021/01/06 11:42:54;;;;;;;;;;;;;;;;;;5039415;28;19929;-62
2021/01/06 11:46:25;;;;;;;6.65;1.98;;;;;;;;;;5136367;27;20358;-60
2021/01/06 11:49:04;;;;;;;6.35;2.03;;;;;;;;;;5068893;28;155259;-60
2021/01/06 11:51:30;;;;;;;4.20;2.10;;;;;;;;;;5072805;28;20051;-60
2021/01/06 11:54:01;;;;;;;9.05;2.63;;;;;;;;;;5076465;28;20024;-62
2021/01/06 11:56:31;;;;;;;8.05;2.05;;;;;;;;;;5073211;28;20041;-62
2021/01/06 11:59:10;;;;;;;10.02;2.30;;;;;;;;;;5089314;28;20039;-62
2021/01/06 12:01:59;;;;;;;6.45;2.35;;;;;;;;;;5091927;28;20028;-60
2021/01/06 12:04:40;;;;;;;5.25;2.20;;;;;;;;;;5076231;28;20052;-60
2021/01/06 12:07:25;;;;;;;6.40;2.30;;;;;;;;;;5073693;28;20109;-60
2021/01/06 12:09:55;;;;;;;5.75;2.50;;;;;;;;;;5074911;28;20052;-60
2021/01/06 12:12:42;;;;;;;12.48;2.58;;;;;;;;;;5074826;28;20054;-60
2021/01/06 12:15:18;;;;;;;5.80;2.40;;;;;;;;;;5099195;28;20076;-60
2021/01/06 12:17:50;;;;;;;6.28;2.50;;;;;;;;;;5092840;28;20149;-60
2021/01/06 12:20:21;;;;;;;8.60;3.00;;;;;;;;;;5096091;28;20068;-60
2021/01/06 12:23:02;;;;;;;8.77;2.95;;;;;;;;;;5089698;28;20032;-60
2021/01/06 12:25:42;;;;;;;5.70;2.55;;;;;;;;;;5075696;28;20056;-60
2021/01/06 12:28:21;;;;;;;6.90;2.80;;;;;;;;;;5075543;28;20033;-60
2021/01/06 12:30:48;;;;;;;7.07;2.53;;;;;;;;;;5076303;28;20036;-60
2021/01/06 12:33:32;;;;;;;8.32;2.75;;;;;;;;;;5078601;28;20032;-61
2021/01/06 12:36:25;;;;;;;7.28;2.45;;;;;;;;;;5097218;28;20043;-62
2021/01/06 12:38:52;;;;;;;10.82;2.60;;;;;;;;;;5091673;28;20036;-61
2021/01/06 12:41:21;;;;;;;7.70;2.83;;;;;;;;;;5096868;28;20121;-61
2021/01/06 12:43:51;;;;;;;8.38;2.95;;;;;;;;;;5089172;28;20032;-61
2021/01/06 12:46:25;;;;;;;15.27;3.83;;;;;;;;;;5076213;28;20403;-62
2021/01/06 12:49:03;;;;;;;8.07;2.85;;;;;;;;;;5075421;28;20048;-61
2021/01/06 12:51:32;;;;;;;10.32;3.28;;;;;;;;;;5078072;28;20132;-61
2021/01/06 12:53:59;;;;;;;6.63;2.63;;;;;;;;;;5074218;28;20130;-62
2021/01/06 12:56:30;;;;;;;7.45;3.00;;;;;;;;;;5069585;28;20033;-61
2021/01/06 12:59:02;;;;;;;8.52;2.90;;;;;;;;;;5061213;28;20036;-62
2021/01/06 13:01:33;;;;;;;6.35;2.42;;;;;;;;;;5064273;28;20053;-62
2021/01/06 13:04:03;;;;;;;4.65;2.17;;;;;;;;;;5061677;28;20049;-62
2021/01/06 13:06:35;;;;;;;5.72;2.15;;;;;;;;;;5066405;28;20037;-61
2021/01/06 13:09:04;;;;;;;7.78;2.65;;;;;;;;;;5065438;28;20036;-62
2021/01/06 13:11:42;;;;;;;7.22;2.50;;;;;;;;;;5068696;28;20040;-62
2021/01/06 13:14:15;;;;;;;9.27;2.50;;;;;;;;;;5063192;28;20041;-61
2021/01/06 13:16:49;;;;;;;7.10;2.63;;;;;;;;;;5059720;28;20045;-61
2021/01/06 13:19:24;;;;;;;6.88;2.55;;;;;;;;;;5062953;28;20032;-61
2021/01/06 13:22:03;;;;;;;11.10;2.58;;;;;;;;;;5074914;28;20037;-61
2021/01/06 13:24:31;;;;;;;6.72;2.40;;;;;;;;;;5064177;28;20033;-61
2021/01/06 13:27:01;;;;;;;11.30;2.83;;;;;;;;;;5059315;28;20040;-61
2021/01/06 13:29:32;;;;;;;6.80;2.40;;;;;;;;;;5059703;28;20059;-61
2021/01/06 13:32:07;;;;;;;7.43;2.50;;;;;;;;;;5071968;28;20028;-61
2021/01/06 13:34:36;;;;;;;7.53;2.47;;;;;;;;;;5099248;28;20060;-61
2021/01/06 13:37:22;;;;;;;8.50;2.70;;;;;;;;;;5078053;28;20040;-61
2021/01/06 13:40:04;;;;;;;7.00;2.47;;;;;;;;;;5100253;28;20158;-61
2021/01/06 13:42:31;;;;;;;7.13;2.40;;;;;;;;;;5066224;28;20053;-61
2021/01/06 13:45:07;;;;;;;7.15;2.42;;;;;;;;;;5061030;28;20044;-61
2021/01/06 13:47:43;;;;;;;9.80;2.90;;;;;;;;;;5052795;28;20056;-61
2021/01/06 13:50:30;;;;;;;7.03;2.63;;;;;;;;;;5062219;28;20064;-61
2021/01/06 13:53:01;;;;;;;6.57;2.28;;;;;;;;;;5070092;28;20048;-61
2021/01/06 13:55:42;;;;;;;7.43;2.80;;;;;;;;;;5082085;28;20044;-61
2021/01/06 13:58:14;;;;;;;6.07;2.40;;;;;;;;;;5077073;28;20028;-61
2021/01/06 14:00:45;;;;;;;7.97;2.83;;;;;;;;;;5083819;28;20044;-61
2021/01/06 14:03:16;;;;;;;5.70;2.20;;;;;;;;;;5061231;28;20151;-61
2021/01/06 14:05:45;;;;;;;6.28;2.25;;;;;;;;;;5060920;28;20051;-62
2021/01/06 14:08:14;;;;;;;7.63;2.40;;;;;;;;;;5046794;28;20143;-61
2021/01/06 14:10:44;;;;;;;11.45;2.70;;;;;;;;;;5060405;28;20047;-61
2021/01/06 14:13:22;;;;;;;9.40;3.05;;;;;;;;;;5075581;28;20041;-61
2021/01/06 14:16:20;;;;;;;10.25;3.30;;;;;;;;;;5060596;28;20047;-61
2021/01/06 14:19:17;;;;;;;10.02;2.85;;;;;;;;;;5073998;28;20044;-61
2021/01/06 14:21:51;;;;;;;8.05;2.33;;;;;;;;;;4984331;28;20058;-61
2021/01/06 14:24:18;;;;;;;7.43;2.60;;;;;;;;;;5042170;28;20057;-61
2021/01/06 14:26:48;;;;;;;5.00;2.25;;;;;;;;;;5062174;28;20037;-61
2021/01/06 14:29:29;;;;;;;8.95;2.83;;;;;;;;;;5058276;28;20043;-61
2021/01/06 14:32:18;;;;;;;5.55;2.33;;;;;;;;;;5063028;28;20029;-61
2021/01/06 14:34:45;;;;;;;6.20;2.25;;;;;;;;;;5050049;28;20040;-61
2021/01/06 14:37:20;;;;;;;7.03;2.30;;;;;;;;;;5041459;28;20108;-61
2021/01/06 14:39:47;;;;;;;7.22;2.65;;;;;;;;;;5058872;28;20048;-61
2021/01/06 14:42:21;;;;;;;8.77;2.50;;;;;;;;;;5077374;28;20028;-61
2021/01/06 14:44:58;;;;;;;7.82;2.25;;;;;;;;;;5076007;28;20040;-61
2021/01/06 14:47:54;;;;;;;6.30;2.10;;;;;;;;;;5081663;28;20118;-61
2021/01/06 14:50:26;;;;;;;7.28;2.33;;;;;;;;;;4981257;28;20070;-60
2021/01/06 14:52:58;;;;;;;8.48;2.30;;;;;;;;;;5036402;28;20040;-60
2021/01/06 14:55:27;;;;;;;6.72;2.60;;;;;;;;;;5058852;28;20044;-60
2021/01/06 14:58:05;;;;;;;7.63;2.20;;;;;;;;;;5061878;28;20040;-60
2021/01/06 15:00:57;;;;;;;7.45;2.13;;;;;;;;;;5075952;28;20036;-60
2021/01/06 15:03:37;;;;;;;11.77;2.70;;;;;;;;;;5059905;28;20070;-60
2021/01/06 15:06:08;;;;;;;8.35;2.33;;;;;;;;;;5084344;28;20076;-60
2021/01/06 15:08:44;;;;;;;10.05;2.28;;;;;;;;;;5075975;28;20032;-60
2021/01/06 15:11:21;;;;;;;7.75;3.10;;;;;;;;;;5083732;28;20048;-60
2021/01/06 15:14:06;;;;;;;10.40;3.13;;;;;;;;;;5056283;28;20121;-60
2021/01/06 15:16:35;;;;;;;7.05;2.20;;;;;;;;;;5045215;28;20096;-60
2021/01/06 15:19:06;;;;;;;6.47;2.35;;;;;;;;;;5061224;28;20029;-60